Time;durP1;ratioP1;P1;durP2;ratioP2;P2;SDS_P1;SDS_P2;PMS_P1;PMS_P2;Temp;Humidity;BMP_temperature;BMP_pressure;BME280_temperature;BME280_humidity;BME280_pressure;Samples;Min_cycle;Max_cycle;Signal;HPM_P1;HPM_P2
2023/01/27 04:59:11;;;;;;;17.17;11.00;;;;;;;4.68;72.53;100467.75;5605768;31;81802;-59
2023/01/27 05:02:13;;;;;;;17.77;11.88;;;;;;;4.68;72.53;100467.75;5583940;31;34091;-59
2023/01/27 05:05:16;;;;;;;20.88;11.68;;;;;;;4.16;63.86;100475.78;5571096;31;33533;-59
2023/01/27 05:08:18;;;;;;;18.90;11.27;;;;;;;4.17;67.10;100473.94;5564223;32;34332;-59
2023/01/27 05:11:20;;;;;;;18.98;11.23;;;;;;;4.17;60.05;100474.75;5564151;32;33878;-59
2023/01/27 05:14:23;;;;;;;17.42;11.65;;;;;;;3.97;59.62;100467.19;5564043;32;33795;-59
2023/01/27 05:17:26;;;;;;;16.87;11.23;;;;;;;3.97;59.44;100471.69;5563957;32;33305;-59
2023/01/27 05:20:30;;;;;;;18.87;11.90;;;;;;;4.06;64.87;100469.47;5564072;32;33611;-59
2023/01/27 05:23:35;;;;;;;15.40;10.63;;;;;;;3.96;60.00;100465.56;5563819;32;33550;-59
2023/01/27 05:26:38;;;;;;;19.80;12.07;;;;;;;4.00;59.03;100460.59;5564088;32;33650;-59
2023/01/27 05:29:40;;;;;;;17.50;11.02;;;;;;;4.14;59.37;100463.78;5564168;32;34411;-59
2023/01/27 05:32:42;;;;;;;18.55;10.60;;;;;;;4.03;60.21;100467.28;5564061;32;33563;-59
2023/01/27 05:35:44;;;;;;;17.08;11.20;;;;;;;4.22;58.11;100471.41;5564037;32;33860;-59
2023/01/27 05:38:47;;;;;;;18.35;11.75;;;;;;;3.98;64.82;100471.47;5563567;32;33707;-59
2023/01/27 05:41:49;;;;;;;17.10;10.82;;;;;;;4.07;60.06;100471.88;5563608;32;34292;-59
2023/01/27 05:44:52;;;;;;;16.95;10.90;;;;;;;3.97;60.67;100476.97;5563855;32;34329;-59
2023/01/27 05:47:54;;;;;;;18.55;13.00;;;;;;;4.00;60.21;100466.72;5563618;32;34386;-60
2023/01/27 05:50:57;;;;;;;20.65;11.38;;;;;;;3.86;58.92;100472.50;5563806;32;33585;-59
2023/01/27 05:54:00;;;;;;;21.80;11.98;;;;;;;3.92;59.63;100467.09;5563933;32;33556;-59
2023/01/27 05:57:02;;;;;;;19.73;14.07;;;;;;;3.95;59.29;100468.47;5563634;32;34325;-59
2023/01/27 06:00:05;;;;;;;18.85;11.52;;;;;;;4.00;60.30;100465.91;5563370;32;33783;-59
2023/01/27 06:03:09;;;;;;;19.92;12.40;;;;;;;4.02;58.81;100465.69;5563440;32;35134;-59
2023/01/27 06:06:13;;;;;;;21.62;13.10;;;;;;;3.92;62.12;100474.25;5563226;32;33576;-59
2023/01/27 06:09:15;;;;;;;24.00;13.20;;;;;;;3.94;78.02;100466.84;5555321;32;33704;-59
2023/01/27 06:12:17;;;;;;;25.05;14.05;;;;;;;3.92;59.17;100466.28;5550585;32;33812;-59
2023/01/27 06:15:19;;;;;;;20.77;12.57;;;;;;;3.93;58.74;100465.22;5550534;32;34355;-59
2023/01/27 06:18:23;;;;;;;18.73;12.02;;;;;;;3.59;60.71;100461.59;5550387;32;33717;-59
2023/01/27 06:21:25;;;;;;;17.98;12.13;;;;;;;3.53;59.03;100455.38;5549822;32;33576;-58
2023/01/27 06:24:28;;;;;;;19.55;11.00;;;;;;;3.65;58.66;100455.38;5549598;32;33749;-59
2023/01/27 06:27:30;;;;;;;16.95;9.48;;;;;;;3.75;67.33;100452.94;5550301;32;33608;-59
2023/01/27 06:30:35;;;;;;;16.77;9.60;;;;;;;3.58;59.28;100460.00;5550235;32;33776;-59
2023/01/27 06:33:37;;;;;;;17.87;10.40;;;;;;;3.73;58.75;100462.97;5550235;32;33646;-58
2023/01/27 06:36:40;;;;;;;14.40;9.63;;;;;;;3.68;57.30;100468.16;5550326;32;33641;-59
2023/01/27 06:39:42;;;;;;;15.63;8.65;;;;;;;3.80;57.38;100461.00;5550333;32;33716;-58
2023/01/27 06:42:44;;;;;;;14.87;9.50;;;;;;;3.71;55.93;100467.72;5549654;32;34269;-59
2023/01/27 06:45:50;;;;;;;16.08;8.95;;;;;;;3.64;55.93;100469.66;5549843;32;33624;-58
2023/01/27 06:48:52;;;;;;;15.57;9.73;;;;;;;3.74;55.04;100469.88;5550132;32;33236;-58
2023/01/27 06:51:55;;;;;;;14.43;9.38;;;;;;;3.95;64.09;100479.09;5552337;32;34342;-58
2023/01/27 06:54:57;;;;;;;14.65;9.18;;;;;;;3.98;56.19;100473.31;5565889;32;33523;-59
2023/01/27 06:58:03;;;;;;;18.73;9.98;;;;;;;3.84;57.23;100478.06;5568977;32;33710;-58
2023/01/27 07:01:06;;;;;;;16.08;10.27;;;;;;;3.84;54.59;100471.94;5567474;32;33731;-58
2023/01/27 07:04:08;;;;;;;14.13;9.10;;;;;;;3.98;55.44;100476.75;5568379;31;34544;-58
2023/01/27 07:07:10;;;;;;;14.87;9.13;;;;;;;4.04;56.02;100475.03;5568307;32;33581;-59
2023/01/27 07:10:13;;;;;;;14.70;9.57;;;;;;;4.12;53.79;100472.00;5569318;32;34269;-58
2023/01/27 07:13:20;;;;;;;14.70;8.18;;;;;;;4.10;53.97;100475.91;5568529;32;33681;-59
2023/01/27 07:16:22;;;;;;;15.05;8.40;;;;;;;4.00;54.35;100477.31;5569085;32;33760;-59
2023/01/27 07:19:24;;;;;;;13.88;8.82;;;;;;;4.12;54.75;100482.59;5566406;32;34257;-59
2023/01/27 07:22:27;;;;;;;18.77;9.20;;;;;;;4.24;52.85;100477.28;5568523;32;33664;-59
2023/01/27 07:25:31;;;;;;;15.10;9.30;;;;;;;4.31;52.28;100477.16;5567663;32;33727;-59
2023/01/27 07:28:33;;;;;;;14.70;9.52;;;;;;;4.44;57.45;100485.63;5563097;32;34270;-59
2023/01/27 07:31:36;;;;;;;14.25;8.50;;;;;;;4.40;52.86;100487.16;5568961;32;34324;-59
2023/01/27 07:34:38;;;;;;;13.82;8.38;;;;;;;4.27;51.47;100486.59;5568185;32;33683;-58
2023/01/27 07:37:40;;;;;;;14.07;9.23;;;;;;;4.59;70.71;100484.28;5568807;32;34259;-59
2023/01/27 07:40:42;;;;;;;15.25;9.43;;;;;;;4.96;75.27;100490.00;5566197;32;33618;-58
2023/01/27 07:43:45;;;;;;;17.65;9.10;;;;;;;5.12;64.72;100489.19;5567930;32;33282;-58
2023/01/27 07:46:51;;;;;;;14.03;8.50;;;;;;;4.92;52.16;100476.38;5554549;32;34341;-59
2023/01/27 07:49:53;;;;;;;13.45;8.75;;;;;;;4.66;56.72;100469.81;5561890;32;33477;-59
2023/01/27 07:53:03;;;;;;;12.10;8.35;;;;;;;4.50;52.18;100469.78;5567868;32;33640;-59
2023/01/27 07:56:10;;;;;;;20.65;8.35;;;;;;;4.97;63.94;100469.53;5568636;32;34262;-58
2023/01/27 07:59:13;;;;;;;11.90;8.10;;;;;;;4.76;54.62;100463.87;5568935;32;33616;-59
2023/01/27 08:02:15;;;;;;;13.55;8.63;;;;;;;4.30;60.33;100468.34;5568557;32;33381;-59
2023/01/27 08:05:19;;;;;;;12.98;8.52;;;;;;;4.54;62.65;100473.59;5568441;32;33582;-59
2023/01/27 08:08:21;;;;;;;13.90;8.65;;;;;;;4.36;52.17;100485.19;5566192;32;33999;-58
2023/01/27 08:11:23;;;;;;;15.93;8.77;;;;;;;4.66;62.60;100485.75;5567573;32;34271;-58
2023/01/27 08:14:26;;;;;;;13.88;9.25;;;;;;;4.91;82.57;100481.94;5568555;32;34470;-58
2023/01/27 08:17:28;;;;;;;15.48;9.15;;;;;;;4.96;55.92;100490.00;5567310;32;33878;-59
2023/01/27 08:20:31;;;;;;;12.43;8.35;;;;;;;5.06;74.18;100484.84;5568060;32;33728;-58
2023/01/27 08:23:33;;;;;;;13.55;8.50;;;;;;;5.38;82.24;100492.25;5568339;32;34293;-59
2023/01/27 08:26:35;;;;;;;13.85;8.35;;;;;;;5.10;56.62;100480.69;5568888;32;33615;-58
2023/01/27 08:29:38;;;;;;;15.25;8.45;;;;;;;5.05;50.68;100483.25;5568049;32;33660;-58
2023/01/27 08:32:40;;;;;;;12.90;7.95;;;;;;;5.54;82.39;100490.66;5567707;32;33708;-59
2023/01/27 08:35:43;;;;;;;16.00;7.80;;;;;;;5.46;51.29;100489.19;5565153;32;32974;-58
2023/01/27 08:38:48;;;;;;;13.20;8.15;;;;;;;5.73;78.34;100493.81;5568192;32;33662;-58
2023/01/27 08:41:51;;;;;;;12.60;7.80;;;;;;;5.71;50.70;100486.09;5567341;32;34383;-59
2023/01/27 08:44:53;;;;;;;14.63;7.43;;;;;;;5.75;69.68;100492.53;5568353;32;33752;-59
2023/01/27 08:47:56;;;;;;;12.15;7.62;;;;;;;5.54;57.51;100490.66;5568508;32;34228;-59
2023/01/27 08:50:59;;;;;;;13.32;8.07;;;;;;;5.54;78.36;100504.75;5567256;32;33805;-59
2023/01/27 08:54:02;;;;;;;11.93;7.82;;;;;;;5.90;77.83;100510.56;5567919;32;33704;-59
2023/01/27 08:57:04;;;;;;;11.60;7.82;;;;;;;6.16;84.45;100502.94;5565829;32;33622;-58
2023/01/27 09:00:08;;;;;;;11.32;7.75;;;;;;;6.05;65.51;100508.13;5566933;32;34305;-58
2023/01/27 09:03:10;;;;;;;12.68;8.45;;;;;;;5.53;51.86;100507.63;5567923;32;33287;-59
2023/01/27 09:06:14;;;;;;;11.45;7.43;;;;;;;5.53;89.84;100510.28;5563351;32;33687;-58
2023/01/27 09:09:16;;;;;;;12.77;7.93;;;;;;;5.50;57.30;100506.28;5565380;32;34323;-59
2023/01/27 09:12:18;;;;;;;13.62;7.53;;;;;;;5.57;53.14;100509.56;5564668;32;34422;-59
2023/01/27 09:15:20;;;;;;;12.52;8.25;;;;;;;5.81;64.19;100515.50;5567035;32;34348;-58
2023/01/27 09:18:23;;;;;;;12.65;9.02;;;;;;;5.88;69.29;100517.97;5566538;32;33749;-59
2023/01/27 09:21:25;;;;;;;13.85;8.65;;;;;;;6.04;85.01;100517.16;5549189;32;34296;-59
2023/01/27 09:24:28;;;;;;;9.75;6.82;;;;;;;6.00;78.23;100518.72;5559587;32;33712;-58
2023/01/27 09:27:30;;;;;;;13.05;8.63;;;;;;;6.15;60.38;100522.63;5566168;32;34715;-58
2023/01/27 09:30:45;;;;;;;12.77;8.27;;;;;;;6.11;68.73;100520.44;5567034;32;33138;-58
2023/01/27 09:33:48;;;;;;;13.38;8.57;;;;;;;5.91;53.12;100517.50;5567044;32;33751;-58
2023/01/27 09:36:54;;;;;;;11.07;6.90;;;;;;;5.06;52.47;100519.38;5567225;32;34359;-59
2023/01/27 09:40:00;;;;;;;;;;;;;;;4.76;54.13;100517.00;5567252;32;34381;-59
2023/01/27 09:43:11;;;;;;;11.52;6.97;;;;;;;4.74;57.75;100523.62;5567395;32;33991;-59
2023/01/27 09:46:37;;;;;;;11.00;6.93;;;;;;;4.68;56.34;100514.75;5568262;32;34303;-58
2023/01/27 09:49:57;;;;;;;10.75;6.85;;;;;;;4.75;70.07;100510.09;5551072;32;34581;-58
2023/01/27 09:53:05;;;;;;;10.98;7.53;;;;;;;4.75;61.26;100514.59;5569626;32;34391;-58
2023/01/27 09:56:11;;;;;;;9.80;6.80;;;;;;;4.89;56.91;100514.06;5568017;32;33643;-59
2023/01/27 09:59:33;;;;;;;13.45;7.85;;;;;;;4.99;76.66;100512.63;5569642;32;34343;-59
2023/01/27 10:02:52;;;;;;;12.40;7.45;;;;;;;5.46;75.51;100509.66;5569720;32;33617;-58
2023/01/27 10:06:10;;;;;;;10.40;7.00;;;;;;;5.27;69.03;100511.78;5569377;32;34357;-59
2023/01/27 10:09:49;;;;;;;10.18;6.55;;;;;;;5.64;87.87;100514.72;5569307;32;33643;-59
2023/01/27 10:13:09;;;;;;;15.25;7.78;;;;;;;5.62;58.67;100522.94;5567478;32;33735;-59
2023/01/27 10:16:12;;;;;;;14.20;8.40;;;;;;;5.51;69.76;100517.72;5568582;32;34299;-58
2023/01/27 10:19:36;;;;;;;13.35;7.22;;;;;;;6.07;92.21;100516.69;5567060;32;33627;-58
2023/01/27 10:22:54;;;;;;;10.38;7.10;;;;;;;5.83;65.06;100510.75;5561422;32;33410;-59
2023/01/27 10:34:44;;;;;;;11.15;6.95;;;;;;;5.67;60.07;100516.09;5578308;31;34221;-59
2023/01/27 10:38:25;;;;;;;12.48;7.57;;;;;;;5.07;56.81;100513.03;5582173;31;33577;-59
2023/01/27 10:41:27;;;;;;;12.95;7.18;;;;;;;4.85;70.52;100512.13;5588343;31;33710;-58
2023/01/27 10:44:47;;;;;;;12.35;7.65;;;;;;;4.41;60.27;100509.19;5580933;31;33287;-59
2023/01/27 10:47:52;;;;;;;17.42;8.00;;;;;;;4.38;61.90;100504.34;5568192;32;33809;-58
2023/01/27 10:51:01;;;;;;;14.90;8.23;;;;;;;4.28;64.60;100504.94;5567114;32;34393;-59
2023/01/27 10:54:21;;;;;;;12.18;7.82;;;;;;;4.89;67.78;100513.25;5565520;32;33638;-59
2023/01/27 10:57:33;;;;;;;10.05;6.95;;;;;;;5.19;73.60;100511.09;5562899;32;34366;-59
2023/01/27 11:00:39;;;;;;;13.60;7.85;;;;;;;4.96;62.67;100492.66;5568226;32;33870;-59
2023/01/27 11:04:13;;;;;;;13.60;7.87;;;;;;;5.23;78.99;100492.84;5568469;32;33078;-58
2023/01/27 11:07:20;;;;;;;13.15;7.50;;;;;;;4.83;64.51;100498.25;5569229;32;33653;-59
2023/01/27 11:10:32;;;;;;;11.40;7.25;;;;;;;4.25;63.11;100492.16;5568607;32;33762;-59
2023/01/27 11:13:36;;;;;;;14.30;9.20;;;;;;;4.22;68.98;100485.47;5567673;32;33758;-59
2023/01/27 11:16:45;;;;;;;10.50;7.37;;;;;;;4.48;89.03;100484.09;5568869;32;34304;-58
2023/01/27 11:20:26;;;;;;;11.80;7.60;;;;;;;4.30;64.76;100488.78;5568948;32;33831;-59
2023/01/27 11:23:42;;;;;;;11.10;7.80;;;;;;;4.24;78.74;100480.75;5568822;32;34384;-59
2023/01/27 11:26:52;;;;;;;11.45;7.50;;;;;;;4.23;70.03;100486.25;5567268;32;33732;-59
2023/01/27 11:29:58;;;;;;;14.68;8.90;;;;;;;4.20;69.18;100482.22;5558085;32;34332;-59
2023/01/27 11:33:17;;;;;;;14.98;9.30;;;;;;;4.69;92.80;100471.19;5564174;32;34525;-58
2023/01/27 11:36:20;;;;;;;13.80;8.48;;;;;;;3.99;71.08;100477.56;5566576;32;33748;-58
2023/01/27 11:39:22;;;;;;;12.55;7.85;;;;;;;4.18;72.86;100472.91;5567416;32;33753;-58
2023/01/27 11:42:30;;;;;;;14.00;8.80;;;;;;;3.76;73.35;100467.81;5567482;32;34782;-59
2023/01/27 11:45:34;;;;;;;11.93;8.18;;;;;;;3.86;74.04;100459.25;5557169;32;33608;-58
2023/01/27 11:48:41;;;;;;;10.73;6.97;;;;;;;3.63;73.05;100465.41;5559878;32;33771;-59
2023/01/27 11:51:43;;;;;;;;;;;;;;;3.76;72.97;100459.84;5565838;32;34181;-58
2023/01/27 11:55:15;;;;;;;12.82;8.60;;;;;;;3.81;74.98;100453.84;5567289;32;33997;-58
2023/01/27 11:58:23;;;;;;;11.65;7.82;;;;;;;3.87;69.83;100437.00;5560857;32;33356;-58
2023/01/27 12:01:45;;;;;;;11.55;7.78;;;;;;;3.88;78.20;100441.28;5566259;32;33704;-59
2023/01/27 12:05:05;;;;;;;11.55;7.57;;;;;;;4.28;78.79;100438.62;5558900;32;33720;-58
2023/01/27 12:08:08;;;;;;;13.15;8.20;;;;;;;3.88;76.98;100434.13;5560556;32;34423;-58
2023/01/27 12:11:21;;;;;;;13.23;8.25;;;;;;;4.25;76.47;100439.09;5559481;32;34429;-58
2023/01/27 12:14:23;;;;;;;14.23;8.50;;;;;;;4.24;72.16;100434.81;5565774;32;34551;-58
2023/01/27 12:17:40;;;;;;;14.27;8.32;;;;;;;4.45;80.48;100426.19;5557848;32;33812;-58
2023/01/27 12:20:46;;;;;;;;;;;;;;;4.68;99.50;100429.75;5560217;32;33915;-59
2023/01/27 12:23:53;;;;;;;12.00;7.90;;;;;;;5.02;80.16;100425.25;5559647;32;34625;-58
2023/01/27 12:26:56;;;;;;;12.63;8.77;;;;;;;4.91;73.30;100418.19;5550155;32;33684;-59
2023/01/27 12:30:05;;;;;;;13.90;8.88;;;;;;;4.95;73.09;100411.34;5568238;32;33702;-58
2023/01/27 12:33:18;;;;;;;13.90;9.07;;;;;;;5.08;80.94;100423.50;5558259;32;33339;-58
2023/01/27 12:36:22;;;;;;;14.20;9.68;;;;;;;4.52;72.05;100409.31;5552161;32;34442;-58
2023/01/27 12:39:34;;;;;;;13.90;9.38;;;;;;;4.44;77.10;100410.50;5565846;32;34282;-59
2023/01/27 12:42:41;;;;;;;14.87;9.73;;;;;;;4.36;76.42;100402.91;5567889;32;34213;-58
2023/01/27 12:45:44;;;;;;;17.17;11.25;;;;;;;4.21;72.98;100412.22;5560782;32;33365;-58
2023/01/27 12:48:49;;;;;;;12.55;8.50;;;;;;;5.00;100.00;100410.59;5567884;32;33622;-58
2023/01/27 12:51:54;;;;;;;15.05;9.07;;;;;;;4.86;79.79;100410.94;5548576;32;33206;-59
2023/01/27 12:54:57;;;;;;;13.95;9.43;;;;;;;4.62;71.26;100399.66;5563041;32;34038;-58
2023/01/27 12:58:00;;;;;;;13.48;9.40;;;;;;;5.04;96.93;100404.59;5565677;32;33507;-58
2023/01/27 13:01:30;;;;;;;14.95;10.45;;;;;;;4.84;82.25;100410.37;5566338;32;33845;-59
2023/01/27 13:04:32;;;;;;;14.10;9.38;;;;;;;5.12;100.00;100409.47;5559317;32;33773;-59
2023/01/27 13:07:44;;;;;;;16.48;10.88;;;;;;;5.25;84.62;100413.66;5553573;32;34405;-59
2023/01/27 13:11:01;;;;;;;14.57;9.95;;;;;;;5.31;97.41;100409.22;5566433;32;33792;-58
2023/01/27 13:14:08;;;;;;;17.33;10.68;;;;;;;5.09;76.37;100407.31;5567796;32;34369;-58
2023/01/27 13:17:29;;;;;;;17.60;10.73;;;;;;;5.55;94.13;100413.28;5566701;32;33846;-58
2023/01/27 13:20:41;;;;;;;16.62;10.40;;;;;;;5.23;83.18;100415.78;5565656;32;34390;-58
2023/01/27 13:23:46;;;;;;;18.45;12.02;;;;;;;5.12;81.92;100421.97;5555028;32;33780;-59
2023/01/27 13:26:51;;;;;;;17.40;11.40;;;;;;;5.53;94.40;100431.34;5566956;32;34463;-59
2023/01/27 13:30:09;;;;;;;16.90;10.73;;;;;;;5.73;99.97;100440.63;5567675;32;34445;-58
2023/01/27 13:33:42;;;;;;;17.30;11.60;;;;;;;5.62;93.40;100439.69;5566399;32;33777;-59
2023/01/27 13:37:12;;;;;;;15.98;11.07;;;;;;;5.48;79.92;100431.25;5562770;32;33661;-58
2023/01/27 13:40:22;;;;;;;16.23;10.70;;;;;;;5.02;71.86;100427.13;5560662;32;33753;-58
2023/01/27 13:43:32;;;;;;;18.67;12.20;;;;;;;4.89;71.41;100426.38;5566714;32;33921;-59
2023/01/27 13:46:38;;;;;;;17.37;12.05;;;;;;;5.22;91.07;100435.41;5558481;32;34815;-58
2023/01/27 13:49:45;;;;;;;18.10;11.38;;;;;;;5.63;95.64;100442.12;5565626;32;33734;-58
2023/01/27 13:52:52;;;;;;;18.00;11.98;;;;;;;5.92;96.72;100438.47;5569549;32;34326;-59
2023/01/27 13:56:06;;;;;;;18.12;12.37;;;;;;;5.94;94.36;100447.06;5569658;32;33299;-59
2023/01/27 13:59:18;;;;;;;18.25;13.25;;;;;;;6.03;97.39;100438.38;5569421;32;34407;-59
2023/01/27 14:02:33;;;;;;;17.83;12.88;;;;;;;6.01;100.00;100440.47;5569674;32;33577;-59
2023/01/27 14:06:13;;;;;;;18.45;12.70;;;;;;;5.93;78.36;100440.09;5570036;31;33618;-59
2023/01/27 14:09:30;;;;;;;21.00;13.70;;;;;;;5.33;71.63;100421.22;5569508;32;33698;-58
2023/01/27 14:12:33;;;;;;;19.92;12.57;;;;;;;5.94;100.00;100431.88;5566488;32;34460;-58
2023/01/27 14:15:35;;;;;;;19.17;13.05;;;;;;;5.29;75.03;100429.91;5569717;32;34442;-58
2023/01/27 14:18:45;;;;;;;18.62;12.32;;;;;;;5.30;75.65;100426.22;5570163;32;33643;-59
2023/01/27 14:22:07;;;;;;;18.25;11.60;;;;;;;5.83;92.68;100430.13;5569016;32;33858;-58
2023/01/27 14:25:40;;;;;;;18.45;12.80;;;;;;;5.33;73.95;100431.03;5568455;32;34374;-58
2023/01/27 14:29:11;;;;;;;18.70;12.77;;;;;;;5.00;83.93;100438.00;5569870;32;33613;-58
2023/01/27 14:32:32;;;;;;;22.33;12.93;;;;;;;4.83;76.37;100432.66;5550421;32;33571;-58
2023/01/27 14:35:54;;;;;;;19.08;12.55;;;;;;;5.02;75.38;100435.09;5550953;32;33729;-58
2023/01/27 14:39:15;;;;;;;20.98;12.95;;;;;;;5.05;92.52;100427.44;5567465;32;33113;-58
2023/01/27 14:42:36;;;;;;;21.05;13.18;;;;;;;5.34;79.62;100430.81;5568138;32;34350;-58
2023/01/27 14:45:48;;;;;;;19.83;12.65;;;;;;;5.55;100.00;100429.22;5569094;32;33758;-58
2023/01/27 14:49:05;;;;;;;17.45;12.37;;;;;;;6.05;100.00;100427.47;5567242;32;33633;-58
2023/01/27 14:52:13;;;;;;;18.83;12.93;;;;;;;5.94;84.31;100431.09;5569890;32;32286;-58
2023/01/27 14:55:27;;;;;;;18.15;12.20;;;;;;;5.31;78.48;100425.97;5567520;32;34348;-58
2023/01/27 14:59:00;;;;;;;21.45;13.45;;;;;;;5.98;95.63;100429.53;5568743;32;33674;-58
2023/01/27 15:02:12;;;;;;;20.55;13.27;;;;;;;5.60;79.15;100431.97;5569738;32;33657;-58
2023/01/27 15:05:34;;;;;;;19.52;13.00;;;;;;;5.54;79.55;100432.94;5569403;32;33676;-58
2023/01/27 15:08:40;;;;;;;22.13;12.82;;;;;;;5.28;74.36;100428.31;5569141;32;33843;-58
2023/01/27 15:12:09;;;;;;;23.00;13.52;;;;;;;5.51;94.64;100422.00;5569143;32;33178;-58
2023/01/27 15:15:26;;;;;;;18.90;13.02;;;;;;;5.81;98.40;100424.25;5569590;32;34598;-59
2023/01/27 15:18:37;;;;;;;18.15;12.35;;;;;;;5.68;80.77;100422.75;5568109;32;33722;-58
2023/01/27 15:22:07;;;;;;;19.65;13.55;;;;;;;5.55;86.33;100418.59;5569500;32;34445;-58
2023/01/27 15:25:29;;;;;;;19.70;13.52;;;;;;;4.99;72.30;100419.63;5569745;32;34353;-59
2023/01/27 15:28:35;;;;;;;19.58;12.63;;;;;;;5.25;93.36;100421.62;5569441;32;33743;-58
2023/01/27 15:31:38;;;;;;;19.80;13.27;;;;;;;5.34;79.97;100424.69;5569543;32;34419;-58
2023/01/27 15:34:49;;;;;;;20.02;13.85;;;;;;;5.50;85.34;100429.16;5569609;32;34565;-59
2023/01/27 15:37:55;;;;;;;22.23;13.45;;;;;;;5.53;100.00;100443.81;5569672;32;33701;-58
2023/01/27 15:41:03;;;;;;;19.50;13.13;;;;;;;5.40;73.53;100447.66;5568158;32;33687;-59
2023/01/27 15:44:17;;;;;;;20.58;14.18;;;;;;;5.83;95.63;100446.09;5569268;32;34373;-59
2023/01/27 15:47:27;;;;;;;22.48;14.38;;;;;;;5.59;88.91;100453.47;5568661;32;34456;-58
2023/01/27 15:50:32;;;;;;;18.73;12.48;;;;;;;5.65;86.91;100450.63;5569047;32;33737;-59
2023/01/27 15:53:43;;;;;;;20.20;13.77;;;;;;;5.54;82.08;100454.22;5569499;32;33782;-59
2023/01/27 15:56:51;;;;;;;22.73;13.18;;;;;;;5.36;80.00;100451.81;5569286;32;33642;-58
2023/01/27 16:00:00;;;;;;;18.05;12.10;;;;;;;5.57;85.19;100443.09;5569205;32;33770;-59
2023/01/27 16:03:26;;;;;;;20.62;13.13;;;;;;;5.54;86.75;100448.91;5569414;32;34236;-59
2023/01/27 16:06:29;;;;;;;18.27;12.60;;;;;;;5.79;98.18;100437.78;5569142;32;33774;-58
2023/01/27 16:09:44;;;;;;;17.15;11.52;;;;;;;5.70;77.46;100452.56;5568475;32;33678;-58
2023/01/27 16:12:47;;;;;;;17.85;12.00;;;;;;;5.41;72.12;100441.28;5565699;32;33060;-58
2023/01/27 16:16:18;;;;;;;15.45;11.10;;;;;;;5.44;87.06;100447.97;5568139;32;34383;-58
2023/01/27 16:19:27;;;;;;;16.95;11.60;;;;;;;5.80;89.89;100454.56;5556974;32;34952;-59
2023/01/27 16:22:34;;;;;;;18.33;11.85;;;;;;;5.60;70.27;100452.44;5567044;32;33552;-58
2023/01/27 16:25:40;;;;;;;;;;;;;;;5.28;78.28;100455.69;5567975;32;34344;-59
2023/01/27 16:28:44;;;;;;;16.90;11.57;;;;;;;5.32;71.19;100464.78;5568123;32;33917;-59
2023/01/27 16:31:55;;;;;;;18.67;11.82;;;;;;;5.53;83.46;100468.56;5568742;32;34502;-58
2023/01/27 16:35:03;;;;;;;16.90;11.98;;;;;;;5.29;69.34;100467.94;5568189;32;33788;-59
2023/01/27 16:38:06;;;;;;;15.05;11.10;;;;;;;5.22;69.57;100474.47;5569101;32;33758;-59
2023/01/27 16:41:20;;;;;;;16.27;11.25;;;;;;;5.26;68.03;100472.94;5568896;32;33886;-58
2023/01/27 16:44:42;;;;;;;18.23;11.82;;;;;;;5.52;85.65;100474.13;5567594;32;33639;-59
